Time;durP1;ratioP1;P1;durP2;ratioP2;P2;SDS_P1;SDS_P2;PMS_P1;PMS_P2;Temp;Humidity;BMP_temperature;BMP_pressure;BME280_temperature;BME280_humidity;BME280_pressure;Samples;Min_cycle;Max_cycle;Signal;HPM_P1;HPM_P2
2023/07/21 00:00:18;;;;;;;2.83;2.60;;;;;;;15.36;73.57;99970.22;5092254;28;20212;-77
2023/07/21 00:02:46;;;;;;;3.78;2.90;;;;;;;15.27;73.71;99965.28;5090589;28;20590;-76
2023/07/21 00:05:15;;;;;;;4.20;2.60;;;;;;;15.24;74.06;99970.56;5090199;28;20279;-77
2023/07/21 00:07:44;;;;;;;4.55;2.50;;;;;;;15.19;73.96;99969.88;5094627;28;20291;-76
2023/07/21 00:10:12;;;;;;;3.75;2.60;;;;;;;15.18;74.19;99963.00;5087932;28;20223;-78
2023/07/21 00:12:46;;;;;;;5.70;2.58;;;;;;;15.19;74.23;99967.28;5087427;28;20274;-77
2023/07/21 00:15:19;;;;;;;3.47;2.60;;;;;;;15.24;74.14;99973.16;5094484;28;20573;-78
2023/07/21 00:17:48;;;;;;;3.70;2.40;;;;;;;15.21;73.93;99970.69;5089627;28;20257;-76
2023/07/21 00:20:21;;;;;;;3.88;2.65;;;;;;;15.26;73.87;99974.00;5094350;28;20964;-76
2023/07/21 00:22:51;;;;;;;3.90;2.78;;;;;;;15.28;73.79;99966.13;5090355;28;20228;-78
2023/07/21 00:25:19;;;;;;;3.65;2.45;;;;;;;15.30;73.44;99973.00;5076264;28;20213;-77
2023/07/21 00:27:47;;;;;;;2.85;2.40;;;;;;;15.30;73.36;99970.38;5080930;28;20232;-76
2023/07/21 00:30:18;;;;;;;4.23;2.47;;;;;;;15.32;73.39;99966.00;5094420;28;20209;-76
2023/07/21 00:32:46;;;;;;;2.60;2.40;;;;;;;15.34;73.50;99963.34;5089763;28;20215;-75
2023/07/21 00:35:14;;;;;;;3.60;2.17;;;;;;;15.36;73.22;99961.56;5095570;28;20196;-76
2023/07/21 00:37:43;;;;;;;3.00;2.67;;;;;;;15.41;72.96;99959.66;5095585;28;20571;-77
2023/07/21 00:40:19;;;;;;;2.70;2.50;;;;;;;15.40;73.15;99957.97;5086708;28;20224;-75
2023/07/21 00:42:47;;;;;;;2.63;2.40;;;;;;;15.43;72.68;99953.53;5090428;28;20200;-76
2023/07/21 00:45:17;;;;;;;2.65;2.15;;;;;;;15.42;72.85;99957.00;5094686;28;20664;-75
2023/07/21 00:47:46;;;;;;;4.55;2.78;;;;;;;15.40;72.80;99958.81;5086853;28;20205;-76
2023/07/21 00:50:16;;;;;;;3.80;2.63;;;;;;;15.34;72.91;99945.19;5088076;28;20208;-75
2023/07/21 00:52:45;;;;;;;4.05;2.88;;;;;;;15.33;73.03;99952.13;5085399;28;20221;-76
2023/07/21 00:55:13;;;;;;;5.53;2.97;;;;;;;15.29;72.78;99947.94;5098251;28;20214;-77
2023/07/21 00:57:42;;;;;;;4.25;2.70;;;;;;;15.28;72.78;99954.03;5094805;28;20564;-77
2023/07/21 01:00:12;;;;;;;3.17;2.88;;;;;;;15.29;72.94;99944.50;5081221;28;20664;-76
2023/07/21 01:02:42;;;;;;;3.88;2.67;;;;;;;15.28;72.90;99943.66;5094893;28;20197;-77
2023/07/21 01:05:12;;;;;;;3.50;2.38;;;;;;;15.23;72.77;99945.53;5095676;28;20205;-76
2023/07/21 01:07:41;;;;;;;2.65;2.30;;;;;;;15.21;73.34;99942.16;5093927;28;20671;-78
2023/07/21 01:10:11;;;;;;;4.35;2.72;;;;;;;15.22;73.33;99944.69;5094847;28;20208;-77
2023/07/21 01:12:40;;;;;;;5.18;2.38;;;;;;;15.23;73.04;99941.19;5086885;28;20208;-78
2023/07/21 01:15:09;;;;;;;2.63;2.40;;;;;;;15.22;73.23;99947.28;5096953;28;20235;-78
2023/07/21 01:17:38;;;;;;;5.30;2.58;;;;;;;15.24;72.80;99947.22;5093839;28;20211;-77
2023/07/21 01:20:11;;;;;;;2.90;2.40;;;;;;;15.26;73.14;99948.03;5095029;28;20290;-77
2023/07/21 01:22:47;;;;;;;5.32;2.70;;;;;;;15.24;72.85;99944.63;5095131;28;20212;-78
2023/07/21 01:25:18;;;;;;;4.35;2.50;;;;;;;15.22;72.99;99944.69;5091860;28;20204;-77
2023/07/21 01:27:48;;;;;;;3.58;2.55;;;;;;;15.22;73.20;99952.47;5086423;28;20263;-79
2023/07/21 01:30:19;;;;;;;2.50;2.30;;;;;;;15.20;73.06;99949.06;5639202;22;21395;-68
2023/07/21 01:32:50;;;;;;;4.00;2.65;;;;;;;15.19;72.57;99956.91;5060478;28;20266;-69
2023/07/21 01:35:19;;;;;;;2.75;2.55;;;;;;;15.18;73.34;99950.88;5069911;28;20569;-68
2023/07/21 01:37:49;;;;;;;4.32;2.90;;;;;;;15.19;72.78;99949.97;5072841;28;20209;-68
2023/07/21 01:40:19;;;;;;;3.58;2.15;;;;;;;15.20;72.73;99948.22;5072792;28;20229;-68
2023/07/21 01:42:48;;;;;;;3.97;2.58;;;;;;;15.19;72.61;99951.72;5069621;28;20208;-68
2023/07/21 01:45:16;;;;;;;4.72;2.42;;;;;;;15.19;72.82;99952.56;5072841;28;20655;-68
2023/07/21 01:47:45;;;;;;;2.38;2.17;;;;;;;15.19;73.02;99952.56;5071694;28;20216;-69
2023/07/21 01:50:18;;;;;;;3.13;2.83;;;;;;;15.20;73.34;99958.59;5072472;28;20213;-68
2023/07/21 01:52:48;;;;;;;4.75;3.05;;;;;;;15.19;73.09;99954.31;5071034;28;20749;-69
2023/07/21 01:55:22;;;;;;;3.50;2.88;;;;;;;15.20;73.04;99956.00;5072575;28;20263;-70
2023/07/21 01:57:54;;;;;;;2.80;2.60;;;;;;;15.18;73.16;99958.66;5072714;28;20197;-68
2023/07/21 02:00:24;;;;;;;4.38;2.28;;;;;;;15.21;73.17;99962.91;5067803;28;20292;-69
2023/07/21 02:02:54;;;;;;;3.58;2.72;;;;;;;15.24;72.93;99967.97;5069540;28;20217;-68
2023/07/21 02:05:25;;;;;;;3.60;3.10;;;;;;;15.18;72.57;99955.22;5065181;28;20291;-68
2023/07/21 02:07:53;;;;;;;2.50;2.30;;;;;;;15.15;72.70;99968.28;5071585;28;20197;-69
2023/07/21 02:10:24;;;;;;;2.85;2.50;;;;;;;15.10;72.90;99971.03;5072383;28;20560;-68
2023/07/21 02:12:52;;;;;;;3.63;3.03;;;;;;;15.09;72.93;99968.47;5072483;28;20221;-68
2023/07/21 02:15:20;;;;;;;6.13;2.57;;;;;;;15.09;73.04;99968.47;5072163;28;20201;-69
2023/07/21 02:17:48;;;;;;;4.80;2.63;;;;;;;15.14;72.54;99971.78;5064443;28;20198;-68
2023/07/21 02:20:16;;;;;;;2.80;2.50;;;;;;;15.14;72.70;99966.59;5063363;28;20637;-68
2023/07/21 02:22:45;;;;;;;2.78;2.53;;;;;;;15.16;72.83;99967.38;5069571;28;20205;-68
2023/07/21 02:25:15;;;;;;;4.75;2.58;;;;;;;15.18;73.28;99968.19;5071981;28;20686;-67
2023/07/21 02:27:44;;;;;;;6.63;2.88;;;;;;;15.20;73.08;99976.78;5069566;28;20360;-67
2023/07/21 02:30:13;;;;;;;3.53;2.75;;;;;;;15.22;72.51;99969.78;5071035;28;20197;-67
2023/07/21 02:32:42;;;;;;;3.92;2.47;;;;;;;15.22;72.33;99967.19;5072028;28;20205;-68
2023/07/21 02:35:10;;;;;;;3.60;3.13;;;;;;;15.23;72.23;99979.28;5071785;28;20205;-67
2023/07/21 02:37:38;;;;;;;2.78;2.58;;;;;;;15.23;72.43;99976.69;5070519;28;20671;-68
2023/07/21 02:40:09;;;;;;;3.20;2.90;;;;;;;15.25;72.54;99974.06;5071393;28;20196;-69
2023/07/21 02:42:37;;;;;;;6.15;3.13;;;;;;;15.26;72.09;99981.78;5071859;28;20239;-69
2023/07/21 02:45:08;;;;;;;3.78;2.47;;;;;;;15.28;71.44;99979.13;5070042;28;20228;-68
2023/07/21 02:47:37;;;;;;;3.28;2.97;;;;;;;15.27;71.94;99975.69;5070082;28;20223;-71
2023/07/21 02:50:09;;;;;;;3.45;3.15;;;;;;;15.25;71.52;99974.91;5071768;28;20205;-69
2023/07/21 02:52:38;;;;;;;2.80;2.60;;;;;;;15.27;71.89;99983.47;5060186;28;20198;-67
2023/07/21 02:55:07;;;;;;;3.85;2.83;;;;;;;15.27;71.33;99977.44;5067992;28;20209;-68
2023/07/21 02:57:36;;;;;;;2.88;2.67;;;;;;;15.24;71.91;99975.78;5071364;28;20656;-68
2023/07/21 03:00:05;;;;;;;3.08;2.70;;;;;;;15.23;71.67;99979.28;5071817;28;20213;-69
2023/07/21 03:02:35;;;;;;;3.53;2.75;;;;;;;15.23;72.43;99977.53;5070886;28;20228;-68
2023/07/21 03:05:05;;;;;;;4.35;2.90;;;;;;;15.30;71.67;99977.34;5070871;28;20212;-68
2023/07/21 03:07:33;;;;;;;3.38;2.97;;;;;;;15.29;71.29;99973.91;5070854;28;20227;-68
2023/07/21 03:10:01;;;;;;;3.10;2.80;;;;;;;15.31;71.32;99973.84;5070336;28;20655;-68
2023/07/21 03:12:29;;;;;;;4.82;2.92;;;;;;;15.32;71.43;99976.41;5066512;28;20665;-67
2023/07/21 03:14:58;;;;;;;7.28;3.00;;;;;;;15.32;71.26;99972.97;5069790;28;20266;-68
2023/07/21 03:17:26;;;;;;;3.58;3.28;;;;;;;15.33;71.57;99967.69;5061032;28;20548;-68
2023/07/21 03:19:56;;;;;;;3.40;3.10;;;;;;;15.32;71.36;99967.75;5059430;28;20239;-68
2023/07/21 03:22:24;;;;;;;3.92;3.05;;;;;;;15.34;71.09;99972.00;5068785;28;20659;-69
2023/07/21 03:24:52;;;;;;;2.97;2.70;;;;;;;15.33;71.23;99967.69;5069752;28;20219;-67
2023/07/21 03:27:20;;;;;;;3.35;2.80;;;;;;;15.32;71.14;99971.22;5067718;28;20264;-68
2023/07/21 03:29:51;;;;;;;3.10;2.70;;;;;;;15.30;71.18;99973.00;5064122;28;20214;-67
2023/07/21 03:32:19;;;;;;;4.72;3.13;;;;;;;15.30;71.06;99975.59;5063901;28;20237;-67
2023/07/21 03:34:50;;;;;;;3.40;2.95;;;;;;;15.33;71.10;99979.84;5068572;28;20244;-67
2023/07/21 03:37:22;;;;;;;4.68;3.20;;;;;;;15.38;71.08;99983.97;5067917;28;20213;-68
2023/07/21 03:39:50;;;;;;;3.38;3.08;;;;;;;15.46;71.00;99981.13;5071630;28;20638;-68
2023/07/21 03:42:19;;;;;;;6.20;3.40;;;;;;;15.53;70.60;99971.38;5063749;28;20201;-68
2023/07/21 03:44:48;;;;;;;5.55;3.15;;;;;;;15.57;70.51;99975.56;5071404;28;20209;-68
2023/07/21 03:47:17;;;;;;;4.47;2.73;;;;;;;15.61;70.37;99972.84;5067458;28;20208;-70
2023/07/21 03:49:46;;;;;;;3.92;3.53;;;;;;;15.72;70.28;99979.44;5072626;28;20198;-68
2023/07/21 03:52:14;;;;;;;5.72;3.58;;;;;;;15.74;69.90;99982.84;5074759;28;20251;-69
2023/07/21 03:54:43;;;;;;;4.97;3.25;;;;;;;15.78;69.52;99974.91;5074627;28;20232;-68
2023/07/21 03:57:11;;;;;;;5.00;2.92;;;;;;;15.79;69.39;99975.75;5073995;28;20985;-70
2023/07/21 03:59:41;;;;;;;3.17;2.88;;;;;;;15.80;69.39;99978.31;5074769;28;20205;-68
2023/07/21 04:02:09;;;;;;;3.88;3.00;;;;;;;15.85;69.57;99975.53;5074764;28;20587;-69
2023/07/21 04:04:37;;;;;;;5.30;3.08;;;;;;;15.88;69.14;99980.63;5073053;28;20649;-67
2023/07/21 04:07:07;;;;;;;4.43;2.97;;;;;;;15.95;69.03;99971.72;5074512;28;20327;-66
2023/07/21 04:09:36;;;;;;;3.17;2.88;;;;;;;16.02;68.72;99977.56;5074502;28;20201;-67
2023/07/21 04:12:06;;;;;;;3.70;2.78;;;;;;;16.10;68.59;99975.53;5074319;28;20217;-69
2023/07/21 04:14:34;;;;;;;3.63;3.13;;;;;;;16.19;68.70;99988.19;5061945;28;20577;-69
2023/07/21 04:17:02;;;;;;;3.20;2.92;;;;;;;16.30;68.33;99982.63;5074647;28;20603;-68
2023/07/21 04:19:30;;;;;;;3.05;2.85;;;;;;;16.43;67.04;99979.53;5070052;28;20201;-69
2023/07/21 04:22:00;;;;;;;2.53;2.33;;;;;;;16.51;66.71;99975.78;5066011;28;20210;-69
2023/07/21 04:24:28;;;;;;;2.85;2.63;;;;;;;16.58;66.35;99972.91;5074476;28;20670;-69
2023/07/21 04:26:56;;;;;;;3.30;3.00;;;;;;;16.71;65.51;99978.47;5065041;28;20201;-69
2023/07/21 04:29:25;;;;;;;4.10;2.60;;;;;;;16.85;65.66;99981.44;5071459;28;20315;-68
2023/07/21 04:32:04;;;;;;;4.13;2.80;;;;;;;17.00;64.94;99974.78;5073805;28;20327;-68
2023/07/21 04:34:33;;;;;;;4.95;2.55;;;;;;;17.15;64.37;99979.38;5073884;28;20224;-69
2023/07/21 04:37:01;;;;;;;5.43;2.60;;;;;;;17.24;64.21;99985.16;5074236;28;20631;-68
2023/07/21 04:39:29;;;;;;;5.15;2.42;;;;;;;17.34;63.64;99989.94;5073480;28;20690;-71
2023/07/21 04:41:57;;;;;;;4.85;2.50;;;;;;;17.41;62.90;99980.09;5073883;28;20543;-70
2023/07/21 04:44:26;;;;;;;4.63;2.67;;;;;;;17.49;62.63;99987.59;5073802;28;20726;-69
2023/07/21 04:46:54;;;;;;;4.93;2.83;;;;;;;17.55;62.66;99983.00;5069195;28;20653;-69
2023/07/21 04:49:22;;;;;;;3.80;2.67;;;;;;;17.66;62.09;99981.72;5066050;28;20288;-68
2023/07/21 04:51:50;;;;;;;5.47;3.03;;;;;;;17.73;61.78;99985.75;5072836;28;20292;-70
2023/07/21 04:54:18;;;;;;;3.17;2.60;;;;;;;17.80;61.73;99977.63;5068434;28;20225;-68
2023/07/21 04:56:46;;;;;;;3.08;2.53;;;;;;;17.97;61.78;99978.66;5072585;28;20721;-68
2023/07/21 04:59:14;;;;;;;3.65;2.78;;;;;;;18.20;61.12;99980.28;5068335;28;20194;-68
2023/07/21 05:01:44;;;;;;;3.63;2.50;;;;;;;18.43;60.45;99984.47;5067484;28;20233;-69
2023/07/21 05:04:12;;;;;;;3.03;2.72;;;;;;;18.65;59.60;99981.75;5073617;28;20567;-70
2023/07/21 05:06:40;;;;;;;2.20;2.10;;;;;;;19.12;59.08;99981.31;5073586;28;20205;-69
2023/07/21 05:09:08;;;;;;;2.90;1.92;;;;;;;20.09;56.68;99980.00;5072390;28;20205;-69
2023/07/21 05:11:35;;;;;;;10.32;2.75;;;;;;;21.18;53.68;99981.06;5073140;28;20205;-71
2023/07/21 05:14:04;;;;;;;3.47;2.20;;;;;;;22.13;50.13;99978.16;5073546;28;20563;-68
2023/07/21 05:16:35;;;;;;;2.95;2.70;;;;;;;22.84;47.33;99981.69;5073063;28;20570;-69
2023/07/21 05:19:04;;;;;;;2.38;2.10;;;;;;;23.19;45.48;99979.44;5072277;28;21123;-69
2023/07/21 05:21:32;;;;;;;2.88;2.17;;;;;;;23.42;45.43;99985.00;5068934;28;20583;-70
2023/07/21 05:24:00;;;;;;;3.42;2.25;;;;;;;24.01;44.80;99983.66;5069293;28;20263;-70
2023/07/21 05:26:28;;;;;;;4.40;2.22;;;;;;;25.10;42.63;99983.91;5065771;28;20644;-70
2023/07/21 05:28:58;;;;;;;4.22;2.20;;;;;;;26.23;39.84;99979.84;5067448;28;20288;-68
2023/07/21 05:31:26;;;;;;;4.32;2.28;;;;;;;27.49;37.37;99975.91;5068675;28;20240;-69
2023/07/21 05:33:54;;;;;;;7.80;1.98;;;;;;;28.92;34.61;99971.59;5073373;28;20559;-67
2023/07/21 05:36:24;;;;;;;9.32;2.38;;;;;;;30.21;31.80;99972.09;5072923;28;20221;-68
2023/07/21 05:38:53;;;;;;;4.80;2.20;;;;;;;31.24;29.82;99970.94;5073140;28;20208;-69
2023/07/21 05:41:22;;;;;;;3.10;1.77;;;;;;;32.08;28.61;99968.78;5071885;28;20228;-68
2023/07/21 05:43:50;;;;;;;2.58;1.92;;;;;;;32.69;27.22;99968.53;5072767;28;20579;-68
2023/07/21 05:46:20;;;;;;;3.42;1.65;;;;;;;32.96;26.92;99966.66;5071425;28;20652;-69
2023/07/21 05:48:48;;;;;;;4.15;2.10;;;;;;;33.81;25.70;99971.69;5073085;28;20651;-69
2023/07/21 05:51:17;;;;;;;4.55;1.60;;;;;;;34.42;24.36;99972.03;5072830;28;20239;-68
2023/07/21 05:53:46;;;;;;;2.53;1.60;;;;;;;34.52;23.77;99970.84;5070747;28;20542;-68
2023/07/21 05:56:15;;;;;;;1.75;1.65;;;;;;;34.73;24.48;99962.22;5072243;28;20251;-67
2023/07/21 05:58:43;;;;;;;3.83;1.60;;;;;;;35.34;23.66;99956.94;5071213;28;20209;-67
2023/07/21 06:01:11;;;;;;;1.65;1.55;;;;;;;36.29;22.79;99964.41;5072489;28;20205;-68
2023/07/21 06:03:39;;;;;;;6.65;1.35;;;;;;;36.92;21.94;99954.00;5071373;28;20655;-69
2023/07/21 06:06:07;;;;;;;3.28;1.40;;;;;;;36.10;21.86;99965.81;5072806;28;20205;-70
2023/07/21 06:08:35;;;;;;;2.78;1.67;;;;;;;33.52;24.72;99973.06;5063754;28;20289;-69
2023/07/21 06:11:04;;;;;;;3.70;1.75;;;;;;;31.99;27.33;99970.53;5067406;28;20233;-68
2023/07/21 06:13:33;;;;;;;3.10;1.67;;;;;;;30.05;29.46;99977.16;5072450;28;20208;-69
2023/07/21 06:16:01;;;;;;;2.00;1.40;;;;;;;28.38;32.65;99979.81;5069011;28;20225;-70
2023/07/21 06:18:29;;;;;;;3.50;1.40;;;;;;;26.96;35.17;99987.25;5071512;28;20201;-69
2023/07/21 06:20:57;;;;;;;3.17;1.40;;;;;;;25.83;37.45;99987.34;5071396;28;20282;-70
2023/07/21 06:23:25;;;;;;;2.08;1.63;;;;;;;24.96;39.13;99990.16;5072271;28;20235;-70
2023/07/21 06:25:54;;;;;;;6.40;1.67;;;;;;;24.06;41.06;99991.25;5062109;28;20206;-70
2023/07/21 06:28:23;;;;;;;3.55;1.60;;;;;;;23.37;43.03;99993.19;5062144;28;20213;-69
2023/07/21 06:30:51;;;;;;;1.90;1.50;;;;;;;22.78;43.85;99997.84;5065487;28;20252;-69
2023/07/21 06:33:19;;;;;;;3.80;1.83;;;;;;;22.30;45.46;99995.53;5072206;28;20201;-69
2023/07/21 06:35:47;;;;;;;6.18;1.48;;;;;;;22.14;46.46;99995.63;5071289;28;20221;-68
2023/07/21 06:38:18;;;;;;;3.00;1.70;;;;;;;22.05;46.60;99996.13;5067218;28;20201;-69
2023/07/21 06:40:47;;;;;;;2.55;1.52;;;;;;;21.83;47.33;100000.97;5064801;28;20293;-70
2023/07/21 06:43:15;;;;;;;2.60;1.30;;;;;;;21.69;48.01;100000.00;5064363;28;20205;-70
2023/07/21 06:45:44;;;;;;;3.00;1.52;;;;;;;21.46;48.08;99997.84;5056250;28;20212;-70
2023/07/21 06:48:12;;;;;;;2.55;1.60;;;;;;;21.18;48.79;99999.41;5067274;28;20208;-63
2023/07/21 06:50:41;;;;;;;2.00;1.80;;;;;;;20.99;49.48;99998.75;5067386;28;20196;-64
2023/07/21 06:53:09;;;;;;;2.50;1.90;;;;;;;21.06;49.98;99994.88;5070085;28;20212;-64
2023/07/21 06:55:37;;;;;;;4.60;1.92;;;;;;;21.25;49.82;99994.66;5065927;28;20217;-65
2023/07/21 06:58:06;;;;;;;5.43;1.75;;;;;;;21.48;49.24;100000.41;5070716;28;20232;-65
2023/07/21 07:00:34;;;;;;;3.45;1.80;;;;;;;21.52;48.20;99992.28;5062940;28;20207;-64
2023/07/21 07:03:03;;;;;;;3.92;1.50;;;;;;;21.52;48.42;99991.44;5067252;28;20284;-64
2023/07/21 07:05:32;;;;;;;1.50;1.40;;;;;;;21.50;48.59;99991.50;5069937;28;20768;-64
2023/07/21 07:08:00;;;;;;;4.25;1.52;;;;;;;21.43;48.80;99995.44;5069997;28;20297;-64
2023/07/21 07:10:28;;;;;;;5.57;1.65;;;;;;;21.38;48.88;99993.06;5070968;28;20204;-63
2023/07/21 07:12:56;;;;;;;1.45;1.35;;;;;;;22.29;48.71;99998.25;5071023;28;20205;-64
2023/07/21 07:15:24;;;;;;;2.33;1.75;;;;;;;23.44;45.22;99998.91;5065313;28;20312;-64
2023/07/21 07:17:52;;;;;;;6.85;1.50;;;;;;;24.37;42.34;99989.09;5068923;28;20294;-64
2023/07/21 07:20:22;;;;;;;1.20;1.15;;;;;;;26.49;38.90;99985.75;5068354;28;20297;-65
2023/07/21 07:22:50;;;;;;;3.80;1.27;;;;;;;29.06;33.92;99979.19;5068936;28;20205;-70
2023/07/21 07:25:20;;;;;;;2.42;1.50;;;;;;;31.63;29.67;99975.97;5062146;28;21595;-69
2023/07/21 07:27:48;;;;;;;5.25;1.20;;;;;;;34.02;25.23;99979.19;5066198;28;20197;-70
2023/07/21 07:30:17;;;;;;;1.73;1.25;;;;;;;35.50;23.69;99970.25;5064540;28;20563;-70
2023/07/21 07:32:45;;;;;;;2.28;1.00;;;;;;;36.74;21.82;99975.91;5060801;28;20245;-69
2023/07/21 07:35:13;;;;;;;2.13;1.30;;;;;;;37.68;20.85;99971.25;5061607;28;20904;-68
2023/07/21 07:37:43;;;;;;;1.65;1.20;;;;;;;38.29;19.31;99978.66;5069704;28;20550;-69
2023/07/21 07:40:12;;;;;;;1.27;1.02;;;;;;;38.06;19.18;99972.78;5066534;28;20686;-69
2023/07/21 07:42:41;;;;;;;1.88;0.90;;;;;;;36.40;19.84;99973.81;5070273;28;20667;-69
2023/07/21 07:45:09;;;;;;;1.10;0.90;;;;;;;35.83;21.37;99971.75;5068981;28;20197;-69
2023/07/21 07:47:37;;;;;;;1.60;0.93;;;;;;;36.14;20.76;99968.94;5063847;28;20216;-68
2023/07/21 07:50:08;;;;;;;1.90;1.40;;;;;;;35.78;20.50;99973.13;5070760;28;20233;-68
2023/07/21 07:52:36;;;;;;;0.60;0.57;;;;;;;35.83;21.55;99972.63;5069215;28;20259;-66
2023/07/21 07:55:07;;;;;;;3.08;1.13;;;;;;;35.72;21.10;99967.69;5067184;28;20212;-68
2023/07/21 07:57:36;;;;;;;3.08;0.93;;;;;;;35.78;20.73;99973.13;5067464;28;20222;-67
2023/07/21 08:00:08;;;;;;;1.77;0.85;;;;;;;35.53;21.52;99967.22;5070856;28;20604;-67
2023/07/21 08:02:36;;;;;;;2.25;0.90;;;;;;;35.15;22.07;99973.50;5061566;28;20198;-67
2023/07/21 08:05:04;;;;;;;5.03;1.08;;;;;;;35.45;21.75;99977.13;5067466;28;20343;-67
2023/07/21 08:07:32;;;;;;;1.55;1.08;;;;;;;35.69;20.51;99981.47;5068974;28;20209;-68
2023/07/21 08:10:03;;;;;;;1.35;0.88;;;;;;;34.44;21.61;99981.56;5062465;28;20240;-69
2023/07/21 08:12:32;;;;;;;1.92;0.75;;;;;;;32.73;22.62;99974.41;5067697;28;20619;-68
2023/07/21 08:15:00;;;;;;;1.92;0.70;;;;;;;30.82;25.46;99975.16;5069894;28;20208;-67
2023/07/21 08:17:28;;;;;;;2.70;0.70;;;;;;;29.62;27.46;99985.63;5069110;28;20568;-67
2023/07/21 08:19:57;;;;;;;2.25;1.00;;;;;;;28.61;28.33;99977.81;5057879;28;20205;-69
2023/07/21 08:22:25;;;;;;;1.70;0.90;;;;;;;27.87;29.86;99975.38;5060990;28;20944;-67
2023/07/21 08:24:53;;;;;;;1.20;0.82;;;;;;;27.17;31.33;99981.19;5055805;28;20656;-65
2023/07/21 08:27:21;;;;;;;5.88;1.15;;;;;;;26.62;32.13;99975.03;5063680;28;20209;-64
2023/07/21 08:29:51;;;;;;;0.70;0.70;;;;;;;26.29;32.98;99978.50;5061226;28;20213;-63
2023/07/21 08:32:19;;;;;;;0.80;0.80;;;;;;;25.42;33.69;99983.34;5067494;28;20259;-66
2023/07/21 08:34:47;;;;;;;1.77;0.73;;;;;;;24.63;33.54;99976.78;5071949;28;20989;-67
2023/07/21 08:37:15;;;;;;;0.70;0.70;;;;;;;23.94;33.77;99976.28;5070537;28;20222;-66
2023/07/21 08:39:43;;;;;;;2.85;1.00;;;;;;;23.47;35.36;99988.19;5063796;28;20210;-65
2023/07/21 08:42:11;;;;;;;1.00;0.93;;;;;;;23.01;36.89;99992.00;5064371;28;20224;-67
2023/07/21 08:44:40;;;;;;;1.65;0.90;;;;;;;22.65;38.26;99989.91;5067319;28;20294;-65
2023/07/21 08:47:10;;;;;;;1.58;0.90;;;;;;;22.40;38.75;99998.44;5068602;28;20224;-67
2023/07/21 08:49:40;;;;;;;0.73;0.73;;;;;;;22.24;39.33;99990.69;5068862;28;20210;-65
2023/07/21 08:52:08;;;;;;;1.27;1.02;;;;;;;22.13;39.94;99998.31;5067366;28;20531;-66
2023/07/21 08:54:36;;;;;;;1.23;1.02;;;;;;;22.03;40.49;99997.19;5073166;28;20215;-67
2023/07/21 08:57:05;;;;;;;1.13;0.90;;;;;;;21.88;41.46;99998.94;5070227;28;20228;-67
2023/07/21 08:59:33;;;;;;;1.52;1.42;;;;;;;21.82;41.72;100004.53;5066050;28;20284;-65
2023/07/21 09:02:01;;;;;;;1.27;1.13;;;;;;;21.78;41.68;99995.16;5068330;28;20582;-65
2023/07/21 09:04:31;;;;;;;1.02;0.93;;;;;;;21.73;41.46;99999.84;5064679;28;20208;-65
2023/07/21 09:07:02;;;;;;;1.75;0.93;;;;;;;21.65;41.07;100003.75;5065821;28;20197;-65
2023/07/21 09:09:32;;;;;;;1.08;0.95;;;;;;;21.59;41.47;99998.00;5065739;28;20198;-65
2023/07/21 09:12:02;;;;;;;1.38;1.20;;;;;;;21.63;41.91;99997.75;5056398;28;20236;-65
2023/07/21 09:14:36;;;;;;;2.92;1.50;;;;;;;21.73;42.38;99994.59;5058200;28;20546;-65
2023/07/21 09:17:05;;;;;;;4.53;1.02;;;;;;;21.83;41.77;100000.97;5062187;28;20585;-65
2023/07/21 09:19:37;;;;;;;0.77;0.77;;;;;;;21.85;40.86;99993.88;5065616;28;20206;-67
2023/07/21 09:22:06;;;;;;;0.93;0.90;;;;;;;21.92;40.74;99990.78;5066371;28;20625;-65
2023/07/21 09:24:37;;;;;;;1.38;1.20;;;;;;;22.05;40.67;99990.88;5063114;28;20205;-68
2023/07/21 09:27:12;;;;;;;2.50;1.00;;;;;;;22.16;40.60;99996.34;5071861;28;20235;-66
2023/07/21 09:29:41;;;;;;;1.52;1.30;;;;;;;22.35;40.13;99993.50;5060053;28;20228;-65
2023/07/21 09:32:13;;;;;;;1.08;0.90;;;;;;;22.63;39.87;99984.72;5065380;28;20240;-65
2023/07/21 09:34:58;;;;;;;1.20;0.82;;;;;;;23.24;37.59;99977.38;5069669;28;20288;-66
2023/07/21 09:37:27;;;;;;;1.83;0.90;;;;;;;23.52;36.29;99981.66;5067366;28;20228;-66
2023/07/21 09:39:57;;;;;;;4.20;1.00;;;;;;;23.66;35.60;99986.00;5072767;28;20233;-66
2023/07/21 09:42:26;;;;;;;1.27;0.90;;;;;;;23.70;35.45;99978.78;5070706;28;20244;-67
2023/07/21 09:44:56;;;;;;;4.07;1.00;;;;;;;23.68;35.46;99978.06;5065235;28;20208;-66
2023/07/21 09:47:26;;;;;;;0.88;0.77;;;;;;;24.16;35.45;99973.88;5065860;28;20730;-67
2023/07/21 09:49:58;;;;;;;0.70;0.70;;;;;;;24.82;35.36;99969.25;5065601;28;20583;-67
2023/07/21 09:52:28;;;;;;;1.40;0.98;;;;;;;25.46;33.68;99961.06;5059856;28;20208;-65
2023/07/21 09:55:02;;;;;;;5.28;1.30;;;;;;;25.52;33.51;99961.44;5061906;28;20315;-67
2023/07/21 09:57:34;;;;;;;1.67;1.38;;;;;;;25.95;33.30;99971.41;5068258;28;20532;-67
2023/07/21 10:00:09;;;;;;;0.80;0.80;;;;;;;26.31;31.67;99964.22;5061307;28;20201;-67
2023/07/21 10:02:38;;;;;;;1.13;0.98;;;;;;;26.90;30.00;99960.47;5064257;28;20193;-66
2023/07/21 10:05:10;;;;;;;2.35;0.82;;;;;;;28.11;28.57;99958.34;5064390;28;20286;-65
2023/07/21 10:07:41;;;;;;;0.60;0.60;;;;;;;29.75;26.18;99949.84;5058535;28;20206;-67
2023/07/21 10:10:11;;;;;;;0.88;0.75;;;;;;;31.15;24.32;99949.72;5061182;28;20213;-66
2023/07/21 10:12:48;;;;;;;1.77;0.70;;;;;;;31.92;22.80;99940.19;5063548;28;20555;-64
2023/07/21 10:15:20;;;;;;;1.20;0.90;;;;;;;32.10;22.04;99946.28;5064996;28;20209;-64
2023/07/21 10:17:59;;;;;;;1.95;0.80;;;;;;;32.55;22.48;99931.84;5067217;28;20622;-65
2023/07/21 10:20:43;;;;;;;1.45;0.70;;;;;;;31.98;22.13;99935.06;5060694;28;20694;-68
2023/07/21 10:23:13;;;;;;;3.53;0.80;;;;;;;31.17;22.66;99935.28;5057002;28;20298;-66
2023/07/21 10:26:03;;;;;;;1.20;0.75;;;;;;;31.38;22.68;99929.66;5063975;28;20205;-66
2023/07/21 10:28:41;;;;;;;1.42;0.93;;;;;;;32.24;22.13;99929.69;5056513;28;20724;-67
2023/07/21 10:31:29;;;;;;;3.53;0.95;;;;;;;32.34;21.41;99915.41;5069509;28;20231;-72
2023/07/21 10:34:07;;;;;;;2.13;0.95;;;;;;;32.24;21.24;99921.69;5066446;28;20213;-67
2023/07/21 10:36:48;;;;;;;1.23;0.95;;;;;;;32.08;21.72;99931.47;5065225;28;20693;-67
2023/07/21 10:39:19;;;;;;;0.80;0.80;;;;;;;32.59;21.06;99925.19;5064310;28;20652;-65
2023/07/21 10:41:48;;;;;;;0.95;0.77;;;;;;;33.30;20.22;99922.94;5071041;28;20198;-66
2023/07/21 10:44:17;;;;;;;1.80;0.77;;;;;;;33.25;20.06;99914.59;5062953;28;20206;-66
2023/07/21 10:46:47;;;;;;;0.75;0.75;;;;;;;33.15;20.51;99920.13;5061640;28;20210;-69
2023/07/21 10:49:17;;;;;;;0.73;0.73;;;;;;;33.49;20.02;99917.28;5061638;28;20910;-66
2023/07/21 10:51:48;;;;;;;1.58;0.73;;;;;;;34.03;19.01;99904.16;5061635;28;20200;-66
2023/07/21 10:54:17;;;;;;;1.25;0.80;;;;;;;34.10;18.17;99904.31;5066883;28;20739;-65
2023/07/21 10:56:47;;;;;;;1.20;0.80;;;;;;;34.47;17.89;99900.94;5064988;28;20212;-65
2023/07/21 10:59:18;;;;;;;0.80;0.80;;;;;;;33.38;18.91;99906.91;5062260;28;20213;-65
2023/07/21 11:01:47;;;;;;;1.52;1.00;;;;;;;33.09;19.34;99897.56;5062796;28;20571;-65
2023/07/21 11:04:18;;;;;;;2.38;0.70;;;;;;;32.77;19.59;99903.69;5066531;28;20259;-67
2023/07/21 11:06:50;;;;;;;1.10;0.90;;;;;;;32.38;20.36;99903.41;5065617;28;20201;-70
2023/07/21 11:09:21;;;;;;;0.90;0.80;;;;;;;31.60;21.25;99914.16;5065508;28;20699;-68
2023/07/21 11:11:51;;;;;;;1.05;0.77;;;;;;;30.48;22.52;99910.09;5069707;28;20201;-66
2023/07/21 11:14:23;;;;;;;2.65;1.08;;;;;;;29.40;23.30;99907.09;5068954;28;20197;-69
2023/07/21 11:16:53;;;;;;;1.52;0.80;;;;;;;28.41;24.74;99910.63;5063841;28;20570;-70
2023/07/21 11:19:23;;;;;;;1.17;0.82;;;;;;;27.32;26.70;99913.81;5069278;28;20214;-68
2023/07/21 11:21:53;;;;;;;1.13;0.73;;;;;;;26.41;28.20;99912.34;5071035;28;20197;-71
2023/07/21 11:24:26;;;;;;;0.75;0.73;;;;;;;25.89;29.19;99921.72;5068264;28;20207;-70
2023/07/21 11:26:56;;;;;;;2.60;1.00;;;;;;;25.49;29.79;99919.47;5067359;28;20564;-70
2023/07/21 11:29:25;;;;;;;1.02;0.80;;;;;;;25.36;29.59;99908.16;5070130;28;20607;-68
2023/07/21 11:31:54;;;;;;;4.75;1.20;;;;;;;25.87;29.53;99904.31;5067129;28;20245;-66
2023/07/21 11:34:23;;;;;;;1.30;1.17;;;;;;;26.66;29.69;99910.44;5065385;28;20578;-69
2023/07/21 11:36:58;;;;;;;0.93;0.90;;;;;;;27.86;27.58;99899.50;5066702;28;20198;-69
2023/07/21 11:39:28;;;;;;;2.80;1.85;;;;;;;29.02;26.21;99893.72;5067199;28;20224;-65
2023/07/21 11:41:57;;;;;;;1.55;0.98;;;;;;;29.42;24.53;99899.81;5069421;28;20216;-69
2023/07/21 11:44:29;;;;;;;1.38;0.90;;;;;;;29.60;24.09;99895.47;5066011;28;20292;-65